sensor_id;sensor_type;location;lat;lon;timestamp;pressure;altitude;pressure_sealevel;temperature;humidity
68525;BME280;55524;51.380;13.372;2023-04-07T00:01:43;100876.75;;;0.39;90.24
68525;BME280;55524;51.380;13.372;2023-04-07T00:04:09;100879.31;;;0.33;90.88
68525;BME280;55524;51.380;13.372;2023-04-07T00:06:35;100875.84;;;0.32;91.11
68525;BME280;55524;51.380;13.372;2023-04-07T00:09:02;100876.72;;;0.33;90.69
68525;BME280;55524;51.380;13.372;2023-04-07T00:11:28;100876.66;;;0.30;89.92
68525;BME280;55524;51.380;13.372;2023-04-07T00:13:54;100868.00;;;0.31;89.47
68525;BME280;55524;51.380;13.372;2023-04-07T00:16:21;100865.44;;;0.32;88.94
68525;BME280;55524;51.380;13.372;2023-04-07T00:18:47;100861.16;;;0.36;87.92
68525;BME280;55524;51.380;13.372;2023-04-07T00:21:14;100863.81;;;0.40;87.84
68525;BME280;55524;51.380;13.372;2023-04-07T00:23:40;100862.84;;;0.34;87.82
68525;BME280;55524;51.380;13.372;2023-04-07T00:26:07;100859.44;;;0.38;87.64
68525;BME280;55524;51.380;13.372;2023-04-07T00:28:34;100864.59;;;0.33;89.11
68525;BME280;55524;51.380;13.372;2023-04-07T00:31:00;100863.63;;;0.27;90.26
68525;BME280;55524;51.380;13.372;2023-04-07T00:33:26;100861.84;;;0.21;90.43
68525;BME280;55524;51.380;13.372;2023-04-07T00:35:53;100865.31;;;0.20;90.89
68525;BME280;55524;51.380;13.372;2023-04-07T00:38:19;100864.41;;;0.19;90.49
68525;BME280;55524;51.380;13.372;2023-04-07T00:40:45;100860.03;;;0.15;90.14
68525;BME280;55524;51.380;13.372;2023-04-07T00:43:12;100859.16;;;0.13;89.28
68525;BME280;55524;51.380;13.372;2023-04-07T00:45:38;100840.06;;;0.11;88.48
68525;BME280;55524;51.380;13.372;2023-04-07T00:48:05;100841.78;;;0.11;88.16
68525;BME280;55524;51.380;13.372;2023-04-07T00:50:46;100836.59;;;0.09;87.15
68525;BME280;55524;51.380;13.372;2023-04-07T00:53:12;100836.56;;;0.08;86.58
68525;BME280;55524;51.380;13.372;2023-04-07T00:55:39;100837.41;;;0.07;86.46
68525;BME280;55524;51.380;13.372;2023-04-07T00:58:05;100837.47;;;0.08;87.08
68525;BME280;55524;51.380;13.372;2023-04-07T01:00:34;100834.81;;;0.07;86.43
68525;BME280;55524;51.380;13.372;2023-04-07T01:03:05;100829.63;;;0.05;86.08
68525;BME280;55524;51.380;13.372;2023-04-07T01:05:45;100830.50;;;0.06;86.01
68525;BME280;55524;51.380;13.372;2023-04-07T01:08:32;100822.69;;;0.07;85.51
68525;BME280;55524;51.380;13.372;2023-04-07T01:11:10;100820.97;;;0.05;85.57
68525;BME280;55524;51.380;13.372;2023-04-07T01:13:50;100821.88;;;0.10;85.98
68525;BME280;55524;51.380;13.372;2023-04-07T01:16:23;100826.16;;;0.08;87.08
68525;BME280;55524;51.380;13.372;2023-04-07T01:18:55;100817.44;;;0.01;88.01
68525;BME280;55524;51.380;13.372;2023-04-07T01:21:25;100821.78;;;0.01;88.77
68525;BME280;55524;51.380;13.372;2023-04-07T01:26:48;100817.31;;;-0.10;89.81
68525;BME280;55524;51.380;13.372;2023-04-07T01:29:33;100819.00;;;-0.13;90.10
68525;BME280;55524;51.380;13.372;2023-04-07T01:32:02;100816.34;;;-0.18;90.60
68525;BME280;55524;51.380;13.372;2023-04-07T01:34:30;100817.25;;;-0.16;91.04
68525;BME280;55524;51.380;13.372;2023-04-07T01:36:58;100810.25;;;-0.21;91.37
68525;BME280;55524;51.380;13.372;2023-04-07T01:39:26;100818.03;;;-0.20;91.51
68525;BME280;55524;51.380;13.372;2023-04-07T01:41:54;100806.78;;;-0.22;91.32
68525;BME280;55524;51.380;13.372;2023-04-07T01:44:21;100811.00;;;-0.32;91.87
68525;BME280;55524;51.380;13.372;2023-04-07T01:46:48;100805.72;;;-0.39;91.63
68525;BME280;55524;51.380;13.372;2023-04-07T01:49:16;100807.34;;;-0.46;91.74
68525;BME280;55524;51.380;13.372;2023-04-07T01:51:44;100805.56;;;-0.50;92.06
68525;BME280;55524;51.380;13.372;2023-04-07T01:54:15;100801.22;;;-0.51;92.15
68525;BME280;55524;51.380;13.372;2023-04-07T01:56:43;100804.66;;;-0.52;92.24
68525;BME280;55524;51.380;13.372;2023-04-07T01:59:10;100799.44;;;-0.55;92.59
68525;BME280;55524;51.380;13.372;2023-04-07T02:01:37;100808.06;;;-0.56;92.94
68525;BME280;55524;51.380;13.372;2023-04-07T02:06:58;100812.59;;;-0.43;93.21
68525;BME280;55524;51.380;13.372;2023-04-07T02:09:27;100807.34;;;-0.44;93.07
68525;BME280;55524;51.380;13.372;2023-04-07T02:11:58;100801.19;;;-0.53;93.34
68525;BME280;55524;51.380;13.372;2023-04-07T02:14:26;100801.09;;;-0.60;93.60
68525;BME280;55524;51.380;13.372;2023-04-07T02:16:53;100800.97;;;-0.69;94.16
68525;BME280;55524;51.380;13.372;2023-04-07T02:19:20;100800.06;;;-0.71;94.74
68525;BME280;55524;51.380;13.372;2023-04-07T02:21:48;100797.44;;;-0.73;95.39
68525;BME280;55524;51.380;13.372;2023-04-07T02:24:19;100795.38;;;-0.97;94.93
68525;BME280;55524;51.380;13.372;2023-04-07T02:26:48;100803.91;;;-1.06;94.96
68525;BME280;55524;51.380;13.372;2023-04-07T02:29:14;100801.19;;;-1.13;96.20
68525;BME280;55524;51.380;13.372;2023-04-07T02:31:41;100802.84;;;-1.15;97.14
68525;BME280;55524;51.380;13.372;2023-04-07T02:34:07;100797.59;;;-1.20;97.22
68525;BME280;55524;51.380;13.372;2023-04-07T02:36:33;100795.78;;;-1.26;97.33
68525;BME280;55524;51.380;13.372;2023-04-07T02:39:01;100798.34;;;-1.29;97.56
68525;BME280;55524;51.380;13.372;2023-04-07T02:41:27;100793.16;;;-1.27;97.64
68525;BME280;55524;51.380;13.372;2023-04-07T02:43:53;100795.81;;;-1.24;97.41
68525;BME280;55524;51.380;13.372;2023-04-07T02:46:20;100797.53;;;-1.25;97.69
68525;BME280;55524;51.380;13.372;2023-04-07T02:48:46;100786.34;;;-1.22;97.69
68525;BME280;55524;51.380;13.372;2023-04-07T02:51:12;100784.56;;;-1.25;97.84
68525;BME280;55524;51.380;13.372;2023-04-07T02:53:39;100793.19;;;-1.26;97.79
68525;BME280;55524;51.380;13.372;2023-04-07T02:56:05;100784.50;;;-1.28;98.14
68525;BME280;55524;51.380;13.372;2023-04-07T02:58:31;100779.38;;;-1.26;97.98
68525;BME280;55524;51.380;13.372;2023-04-07T03:00:58;100785.44;;;-1.24;98.20
68525;BME280;55524;51.380;13.372;2023-04-07T03:03:24;100784.50;;;-1.29;98.62
68525;BME280;55524;51.380;13.372;2023-04-07T03:05:50;100780.13;;;-1.32;98.46
68525;BME280;55524;51.380;13.372;2023-04-07T03:08:16;100779.31;;;-1.31;98.43
68525;BME280;55524;51.380;13.372;2023-04-07T03:10:43;100779.31;;;-1.29;98.60
68525;BME280;55524;51.380;13.372;2023-04-07T03:13:09;100780.13;;;-1.32;98.46
68525;BME280;55524;51.380;13.372;2023-04-07T03:15:37;100778.41;;;-1.31;98.97
68525;BME280;55524;51.380;13.372;2023-04-07T03:18:04;100776.66;;;-1.34;99.05
68525;BME280;55524;51.380;13.372;2023-04-07T03:20:30;100774.81;;;-1.39;99.39
68525;BME280;55524;51.380;13.372;2023-04-07T03:22:56;100778.25;;;-1.42;99.37
68525;BME280;55524;51.380;13.372;2023-04-07T03:25:24;100773.91;;;-1.43;99.24
68525;BME280;55524;51.380;13.372;2023-04-07T03:27:50;100778.28;;;-1.40;99.15
68525;BME280;55524;51.380;13.372;2023-04-07T03:30:16;100771.34;;;-1.40;98.74
68525;BME280;55524;51.380;13.372;2023-04-07T03:32:43;100770.50;;;-1.40;98.58
68525;BME280;55524;51.380;13.372;2023-04-07T03:35:09;100773.09;;;-1.40;98.59
68525;BME280;55524;51.380;13.372;2023-04-07T03:37:35;100774.00;;;-1.37;98.99
68525;BME280;55524;51.380;13.372;2023-04-07T03:40:02;100773.91;;;-1.43;99.74
68525;BME280;55524;51.380;13.372;2023-04-07T03:42:28;100770.38;;;-1.48;100.00
68525;BME280;55524;51.380;13.372;2023-04-07T03:44:55;100768.63;;;-1.49;100.00
68525;BME280;55524;51.380;13.372;2023-04-07T03:47:21;100771.16;;;-1.51;100.00
68525;BME280;55524;51.380;13.372;2023-04-07T03:49:48;100778.91;;;-1.54;100.00
68525;BME280;55524;51.380;13.372;2023-04-07T03:52:14;100770.22;;;-1.57;99.79
68525;BME280;55524;51.380;13.372;2023-04-07T03:54:40;100775.34;;;-1.59;100.00
68525;BME280;55524;51.380;13.372;2023-04-07T03:57:07;100772.81;;;-1.57;100.00
68525;BME280;55524;51.380;13.372;2023-04-07T03:59:34;100772.75;;;-1.62;100.00
68525;BME280;55524;51.380;13.372;2023-04-07T04:02:00;100770.16;;;-1.60;100.00
68525;BME280;55524;51.380;13.372;2023-04-07T04:04:26;100777.84;;;-1.65;100.00
68525;BME280;55524;51.380;13.372;2023-04-07T04:06:53;100780.44;;;-1.65;100.00
68525;BME280;55524;51.380;13.372;2023-04-07T04:09:19;100779.56;;;-1.65;100.00
68525;BME280;55524;51.380;13.372;2023-04-07T04:11:46;100783.03;;;-1.65;100.00
68525;BME280;55524;51.380;13.372;2023-04-07T04:14:12;100785.56;;;-1.68;100.00
68525;BME280;55524;51.380;13.372;2023-04-07T04:16:38;100789.88;;;-1.70;100.00
68525;BME280;55524;51.380;13.372;2023-04-07T04:19:04;100788.16;;;-1.68;100.00
68525;BME280;55524;51.380;13.372;2023-04-07T04:21:31;100784.63;;;-1.73;100.00
68525;BME280;55524;51.380;13.372;2023-04-07T04:23:57;100787.16;;;-1.76;100.00
68525;BME280;55524;51.380;13.372;2023-04-07T04:26:23;100787.16;;;-1.75;100.00
68525;BME280;55524;51.380;13.372;2023-04-07T04:28:51;100786.28;;;-1.77;100.00
68525;BME280;55524;51.380;13.372;2023-04-07T04:31:18;100784.56;;;-1.76;100.00
68525;BME280;55524;51.380;13.372;2023-04-07T04:33:44;100788.88;;;-1.75;100.00
68525;BME280;55524;51.380;13.372;2023-04-07T04:36:11;100783.69;;;-1.78;100.00
68525;BME280;55524;51.380;13.372;2023-04-07T04:38:37;100778.44;;;-1.80;100.00
68525;BME280;55524;51.380;13.372;2023-04-07T04:41:03;100780.97;;;-1.83;100.00
68525;BME280;55524;51.380;13.372;2023-04-07T04:43:30;100784.34;;;-1.87;100.00
68525;BME280;55524;51.380;13.372;2023-04-07T04:45:57;100782.63;;;-1.86;100.00
68525;BME280;55524;51.380;13.372;2023-04-07T04:48:23;100783.47;;;-1.87;100.00
68525;BME280;55524;51.380;13.372;2023-04-07T04:50:50;100783.53;;;-1.84;100.00
68525;BME280;55524;51.380;13.372;2023-04-07T04:53:16;100788.75;;;-1.83;100.00
68525;BME280;55524;51.380;13.372;2023-04-07T04:55:42;100785.22;;;-1.88;100.00
68525;BME280;55524;51.380;13.372;2023-04-07T04:58:12;100790.22;;;-1.97;100.00
68525;BME280;55524;51.380;13.372;2023-04-07T05:00:38;100788.28;;;-2.09;100.00
68525;BME280;55524;51.380;13.372;2023-04-07T05:03:04;100793.88;;;-2.30;100.00
68525;BME280;55524;51.380;13.372;2023-04-07T05:05:31;100789.53;;;-2.32;100.00
68525;BME280;55524;51.380;13.372;2023-04-07T05:07:57;100789.63;;;-2.28;100.00
68525;BME280;55524;51.380;13.372;2023-04-07T05:10:23;100788.84;;;-2.22;100.00
68525;BME280;55524;51.380;13.372;2023-04-07T05:12:50;100790.78;;;-2.12;100.00
68525;BME280;55524;51.380;13.372;2023-04-07T05:15:16;100785.75;;;-2.06;100.00
68525;BME280;55524;51.380;13.372;2023-04-07T05:17:42;100784.97;;;-2.00;100.00
68525;BME280;55524;51.380;13.372;2023-04-07T05:20:09;100780.81;;;-1.92;100.00
68525;BME280;55524;51.380;13.372;2023-04-07T05:22:36;100777.44;;;-1.86;100.00
68525;BME280;55524;51.380;13.372;2023-04-07T05:25:02;100783.59;;;-1.81;100.00
68525;BME280;55524;51.380;13.372;2023-04-07T05:27:29;100781.94;;;-1.78;100.00
68525;BME280;55524;51.380;13.372;2023-04-07T05:29:55;100790.66;;;-1.73;100.00
68525;BME280;55524;51.380;13.372;2023-04-07T05:32:21;100789.88;;;-1.68;100.00
68525;BME280;55524;51.380;13.372;2023-04-07T05:34:48;100781.31;;;-1.63;100.00
68525;BME280;55524;51.380;13.372;2023-04-07T05:37:14;100787.44;;;-1.59;100.00
68525;BME280;55524;51.380;13.372;2023-04-07T05:39:41;100785.84;;;-1.53;100.00
68525;BME280;55524;51.380;13.372;2023-04-07T05:42:07;100784.19;;;-1.48;100.00
68525;BME280;55524;51.380;13.372;2023-04-07T05:44:33;100790.28;;;-1.44;100.00
68525;BME280;55524;51.380;13.372;2023-04-07T05:46:59;100785.19;;;-1.39;100.00
68525;BME280;55524;51.380;13.372;2023-04-07T05:49:26;100774.94;;;-1.33;99.72
68525;BME280;55524;51.380;13.372;2023-04-07T05:51:52;100775.94;;;-1.25;99.32
68525;BME280;55524;51.380;13.372;2023-04-07T05:54:19;100778.59;;;-1.19;99.16
68525;BME280;55524;51.380;13.372;2023-04-07T05:56:45;100775.31;;;-1.10;99.32
68525;BME280;55524;51.380;13.372;2023-04-07T05:59:11;100779.75;;;-1.00;98.88
68525;BME280;55524;51.380;13.372;2023-04-07T06:01:37;100779.00;;;-0.94;98.69
68525;BME280;55524;51.380;13.372;2023-04-07T06:04:04;100773.06;;;-0.84;98.68
68525;BME280;55524;51.380;13.372;2023-04-07T06:06:30;100774.97;;;-0.72;98.27
68525;BME280;55524;51.380;13.372;2023-04-07T06:08:56;100769.06;;;-0.62;98.20
68525;BME280;55524;51.380;13.372;2023-04-07T06:11:23;100772.69;;;-0.51;98.23
68525;BME280;55524;51.380;13.372;2023-04-07T06:13:49;100774.56;;;-0.36;98.15
68525;BME280;55524;51.380;13.372;2023-04-07T06:16:15;100770.34;;;-0.28;97.40
68525;BME280;55524;51.380;13.372;2023-04-07T06:18:41;100777.44;;;-0.15;97.46
68525;BME280;55524;51.380;13.372;2023-04-07T06:21:08;100777.53;;;-0.07;97.75
68525;BME280;55524;51.380;13.372;2023-04-07T06:23:34;100775.03;;;0.04;97.64
68525;BME280;55524;51.380;13.372;2023-04-07T06:26:01;100784.69;;;0.15;98.01
68525;BME280;55524;51.380;13.372;2023-04-07T06:28:27;100780.44;;;0.20;97.48
68525;BME280;55524;51.380;13.372;2023-04-07T06:30:54;100780.47;;;0.27;97.42
68525;BME280;55524;51.380;13.372;2023-04-07T06:33:20;100785.78;;;0.36;97.24
68525;BME280;55524;51.380;13.372;2023-04-07T06:35:50;100775.44;;;0.42;97.80
68525;BME280;55524;51.380;13.372;2023-04-07T06:38:17;100779.00;;;0.52;97.71
68525;BME280;55524;51.380;13.372;2023-04-07T06:40:44;100777.34;;;0.61;96.57
68525;BME280;55524;51.380;13.372;2023-04-07T06:43:10;100775.69;;;0.74;95.14
68525;BME280;55524;51.380;13.372;2023-04-07T06:45:36;100772.38;;;0.92;94.32
68525;BME280;55524;51.380;13.372;2023-04-07T06:48:03;100766.38;;;1.05;92.28
68525;BME280;55524;51.380;13.372;2023-04-07T06:50:29;100758.69;;;1.25;90.03
68525;BME280;55524;51.380;13.372;2023-04-07T06:52:56;100746.66;;;1.39;88.03
68525;BME280;55524;51.380;13.372;2023-04-07T06:55:22;100750.22;;;1.64;86.54
68525;BME280;55524;51.380;13.372;2023-04-07T06:57:48;100743.38;;;1.91;85.52
68525;BME280;55524;51.380;13.372;2023-04-07T07:00:17;100737.34;;;2.19;83.66
68525;BME280;55524;51.380;13.372;2023-04-07T07:02:44;100713.03;;;2.34;80.82
68525;BME280;55524;51.380;13.372;2023-04-07T07:05:10;100704.31;;;2.60;79.44
68525;BME280;55524;51.380;13.372;2023-04-07T07:07:37;100708.63;;;2.93;79.50
68525;BME280;55524;51.380;13.372;2023-04-07T07:10:04;100705.97;;;3.17;78.87
68525;BME280;55524;51.380;13.372;2023-04-07T07:12:30;100697.09;;;3.52;76.74
68525;BME280;55524;51.380;13.372;2023-04-07T07:14:57;100704.00;;;3.72;77.27
68525;BME280;55524;51.380;13.372;2023-04-07T07:17:23;100681.22;;;3.93;75.44
68525;BME280;55524;51.380;13.372;2023-04-07T07:19:49;100689.00;;;4.00;75.28
68525;BME280;55524;51.380;13.372;2023-04-07T07:22:16;100681.06;;;4.16;74.12
68525;BME280;55524;51.380;13.372;2023-04-07T07:24:42;100687.84;;;4.39;74.15
68525;BME280;55524;51.380;13.372;2023-04-07T07:27:08;100686.06;;;4.42;73.47
68525;BME280;55524;51.380;13.372;2023-04-07T07:29:34;100675.09;;;4.99;72.65
68525;BME280;55524;51.380;13.372;2023-04-07T07:32:01;100649.94;;;5.55;70.15
68525;BME280;55524;51.380;13.372;2023-04-07T07:34:27;100648.72;;;6.38;70.07
68525;BME280;55524;51.380;13.372;2023-04-07T07:40:10;100587.13;;;7.81;62.52
68525;BME280;55524;51.380;13.372;2023-04-07T07:42:37;100582.31;;;7.99;60.29
68525;BME280;55524;51.380;13.372;2023-04-07T07:45:04;100583.88;;;8.42;59.93
68525;BME280;55524;51.380;13.372;2023-04-07T07:47:30;100599.56;;;8.46;60.52
68525;BME280;55524;51.380;13.372;2023-04-07T07:49:57;100612.91;;;8.03;61.74
68525;BME280;55524;51.380;13.372;2023-04-07T07:52:24;100632.03;;;7.74;63.83
68525;BME280;55524;51.380;13.372;2023-04-07T07:54:51;100633.34;;;7.92;63.84
68525;BME280;55524;51.380;13.372;2023-04-07T07:57:17;100645.94;;;8.16;64.31
68525;BME280;55524;51.380;13.372;2023-04-07T07:59:43;100619.47;;;8.22;61.99
68525;BME280;55524;51.380;13.372;2023-04-07T08:02:13;100626.22;;;8.68;61.03
68525;BME280;55524;51.380;13.372;2023-04-07T08:04:40;100625.63;;;8.90;60.91
68525;BME280;55524;51.380;13.372;2023-04-07T08:07:06;100610.03;;;8.82;59.74
68525;BME280;55524;51.380;13.372;2023-04-07T08:09:33;100614.94;;;8.96;59.91
68525;BME280;55524;51.380;13.372;2023-04-07T08:11:59;100612.31;;;8.94;58.89
68525;BME280;55524;51.380;13.372;2023-04-07T08:14:25;100623.00;;;8.57;59.80
68525;BME280;55524;51.380;13.372;2023-04-07T08:16:52;100617.41;;;8.69;59.45
68525;BME280;55524;51.380;13.372;2023-04-07T08:19:18;100607.69;;;8.71;58.31
68525;BME280;55524;51.380;13.372;2023-04-07T08:21:44;100597.31;;;8.65;57.68
68525;BME280;55524;51.380;13.372;2023-04-07T08:24:11;100610.34;;;8.70;58.67
68525;BME280;55524;51.380;13.372;2023-04-07T08:26:37;100589.47;;;8.64;56.07
68525;BME280;55524;51.380;13.372;2023-04-07T08:29:04;100592.19;;;8.59;55.17
68525;BME280;55524;51.380;13.372;2023-04-07T08:31:31;100601.53;;;8.71;56.25
68525;BME280;55524;51.380;13.372;2023-04-07T08:33:58;100590.69;;;8.83;55.17
68525;BME280;55524;51.380;13.372;2023-04-07T08:36:25;100558.00;;;8.57;51.93
68525;BME280;55524;51.380;13.372;2023-04-07T08:38:53;100565.13;;;8.54;52.87
68525;BME280;55524;51.380;13.372;2023-04-07T08:41:38;100559.00;;;8.84;52.10
68525;BME280;55524;51.380;13.372;2023-04-07T08:44:06;100552.13;;;8.79;50.35
68525;BME280;55524;51.380;13.372;2023-04-07T08:46:35;100529.94;;;8.88;49.37
68525;BME280;55524;51.380;13.372;2023-04-07T08:49:10;100524.31;;;9.00;48.50
68525;BME280;55524;51.380;13.372;2023-04-07T08:51:45;100527.53;;;8.49;48.42
68525;BME280;55524;51.380;13.372;2023-04-07T08:54:14;100520.81;;;8.37;47.93
68525;BME280;55524;51.380;13.372;2023-04-07T08:56:41;100533.38;;;8.58;48.85
68525;BME280;55524;51.380;13.372;2023-04-07T08:59:12;100524.03;;;8.48;47.67
68525;BME280;55524;51.380;13.372;2023-04-07T09:01:39;100548.66;;;8.46;49.81
68525;BME280;55524;51.380;13.372;2023-04-07T09:04:09;100557.09;;;8.91;50.37
68525;BME280;55524;51.380;13.372;2023-04-07T09:06:36;100537.50;;;8.98;48.57
68525;BME280;55524;51.380;13.372;2023-04-07T09:09:03;100552.06;;;8.82;50.01
68525;BME280;55524;51.380;13.372;2023-04-07T09:11:35;100564.00;;;8.95;51.63
68525;BME280;55524;51.380;13.372;2023-04-07T09:14:02;100546.66;;;8.86;50.36
68525;BME280;55524;51.380;13.372;2023-04-07T09:16:29;100556.00;;;9.28;51.22
68525;BME280;55524;51.380;13.372;2023-04-07T09:18:56;100556.41;;;9.42;50.45
68525;BME280;55524;51.380;13.372;2023-04-07T09:21:23;100560.97;;;9.37;51.16
68525;BME280;55524;51.380;13.372;2023-04-07T09:23:49;100537.19;;;9.67;49.03
68525;BME280;55524;51.380;13.372;2023-04-07T09:26:25;100539.94;;;9.64;49.40
68525;BME280;55524;51.380;13.372;2023-04-07T09:28:54;100529.63;;;9.56;48.06
68525;BME280;55524;51.380;13.372;2023-04-07T09:34:25;100526.53;;;9.70;47.76
68525;BME280;55524;51.380;13.372;2023-04-07T09:36:52;100537.03;;;9.71;48.37
68525;BME280;55524;51.380;13.372;2023-04-07T09:39:19;100539.19;;;9.87;48.45
68525;BME280;55524;51.380;13.372;2023-04-07T09:41:45;100524.84;;;9.94;47.21
68525;BME280;55524;51.380;13.372;2023-04-07T09:44:12;100515.63;;;10.07;47.10
68525;BME280;55524;51.380;13.372;2023-04-07T09:46:55;100523.03;;;9.96;47.15
68525;BME280;55524;51.380;13.372;2023-04-07T09:49:23;100519.88;;;10.11;47.30
68525;BME280;55524;51.380;13.372;2023-04-07T09:54:35;100520.00;;;10.33;47.15
68525;BME280;55524;51.380;13.372;2023-04-07T09:57:05;100519.91;;;10.09;47.36
68525;BME280;55524;51.380;13.372;2023-04-07T09:59:33;100523.41;;;10.37;48.14
68525;BME280;55524;51.380;13.372;2023-04-07T10:02:00;100518.78;;;10.43;47.58
68525;BME280;55524;51.380;13.372;2023-04-07T10:04:27;100521.56;;;10.14;48.93
68525;BME280;55524;51.380;13.372;2023-04-07T10:06:56;100530.03;;;9.97;49.17
68525;BME280;55524;51.380;13.372;2023-04-07T10:09:23;100529.53;;;10.39;47.91
68525;BME280;55524;51.380;13.372;2023-04-07T10:11:51;100511.00;;;10.14;46.58
68525;BME280;55524;51.380;13.372;2023-04-07T10:14:21;100519.97;;;10.34;47.73
68525;BME280;55524;51.380;13.372;2023-04-07T10:16:49;100506.00;;;10.31;47.05
68525;BME280;55524;51.380;13.372;2023-04-07T10:19:16;100521.56;;;10.64;47.95
68525;BME280;55524;51.380;13.372;2023-04-07T10:21:44;100513.16;;;10.52;47.76
68525;BME280;55524;51.380;13.372;2023-04-07T10:24:50;100515.78;;;10.54;47.80
68525;BME280;55524;51.380;13.372;2023-04-07T10:27:24;100500.72;;;10.79;45.81
68525;BME280;55524;51.380;13.372;2023-04-07T10:29:53;100500.22;;;10.70;45.82
68525;BME280;55524;51.380;13.372;2023-04-07T10:32:19;100488.31;;;10.81;45.02
68525;BME280;55524;51.380;13.372;2023-04-07T10:37:20;100489.00;;;10.87;44.74
68525;BME280;55524;51.380;13.372;2023-04-07T10:39:48;100516.31;;;10.87;46.80
68525;BME280;55524;51.380;13.372;2023-04-07T10:45:08;100494.69;;;11.45;45.56
68525;BME280;55524;51.380;13.372;2023-04-07T10:48:08;100500.50;;;11.75;45.11
68525;BME280;55524;51.380;13.372;2023-04-07T10:50:22;100486.00;;;11.85;43.87
68525;BME280;55524;51.380;13.372;2023-04-07T10:53:12;100488.19;;;11.74;44.44
68525;BME280;55524;51.380;13.372;2023-04-07T10:55:39;100499.00;;;11.68;45.12
68525;BME280;55524;51.380;13.372;2023-04-07T10:58:24;100470.19;;;11.82;42.39
68525;BME280;55524;51.380;13.372;2023-04-07T11:03:27;100453.78;;;13.31;42.19
68525;BME280;55524;51.380;13.372;2023-04-07T11:08:38;100445.31;;;13.76;40.54
68525;BME280;55524;51.380;13.372;2023-04-07T11:11:06;100408.22;;;13.58;37.12
68525;BME280;55524;51.380;13.372;2023-04-07T11:13:45;100425.53;;;13.11;38.84
68525;BME280;55524;51.380;13.372;2023-04-07T11:16:14;100404.63;;;12.67;37.56
68525;BME280;55524;51.380;13.372;2023-04-07T11:18:41;100423.41;;;12.03;38.62
68525;BME280;55524;51.380;13.372;2023-04-07T11:21:08;100413.97;;;11.97;38.42
68525;BME280;55524;51.380;13.372;2023-04-07T11:23:42;100424.94;;;12.09;39.71
68525;BME280;55524;51.380;13.372;2023-04-07T11:26:10;100455.72;;;11.91;41.59
68525;BME280;55524;51.380;13.372;2023-04-07T11:28:58;100444.34;;;11.67;40.25
68525;BME280;55524;51.380;13.372;2023-04-07T11:31:29;100450.34;;;11.50;40.63
68525;BME280;55524;51.380;13.372;2023-04-07T11:34:03;100439.38;;;11.59;39.84
68525;BME280;55524;51.380;13.372;2023-04-07T11:36:33;100463.09;;;12.04;41.98
68525;BME280;55524;51.380;13.372;2023-04-07T11:39:03;100448.56;;;12.34;41.41
68525;BME280;55524;51.380;13.372;2023-04-07T11:41:31;100444.00;;;12.37;40.96
68525;BME280;55524;51.380;13.372;2023-04-07T11:44:09;100436.69;;;12.42;40.09
68525;BME280;55524;51.380;13.372;2023-04-07T11:46:40;100426.94;;;12.24;39.18
68525;BME280;55524;51.380;13.372;2023-04-07T11:49:19;100443.41;;;12.10;40.23
68525;BME280;55524;51.380;13.372;2023-04-07T11:51:46;100429.78;;;11.99;39.73
68525;BME280;55524;51.380;13.372;2023-04-07T11:54:13;100433.03;;;12.05;39.85
68525;BME280;55524;51.380;13.372;2023-04-07T11:56:44;100425.19;;;12.02;39.35
68525;BME280;55524;51.380;13.372;2023-04-07T11:59:19;100425.84;;;12.28;39.37
68525;BME280;55524;51.380;13.372;2023-04-07T12:01:48;100429.06;;;12.16;39.73
68525;BME280;55524;51.380;13.372;2023-04-07T12:04:15;100442.63;;;12.08;40.74
68525;BME280;55524;51.380;13.372;2023-04-07T12:06:43;100421.75;;;12.79;39.66
68525;BME280;55524;51.380;13.372;2023-04-07T12:09:32;100421.88;;;12.18;39.35
68525;BME280;55524;51.380;13.372;2023-04-07T12:12:02;100425.53;;;12.73;41.11
68525;BME280;55524;51.380;13.372;2023-04-07T12:14:30;100425.47;;;12.56;39.63
68525;BME280;55524;51.380;13.372;2023-04-07T12:16:57;100424.19;;;12.65;40.61
68525;BME280;55524;51.380;13.372;2023-04-07T12:19:28;100408.72;;;13.29;38.99
68525;BME280;55524;51.380;13.372;2023-04-07T12:21:55;100421.00;;;13.49;38.65
68525;BME280;55524;51.380;13.372;2023-04-07T12:24:22;100404.31;;;13.47;37.59
68525;BME280;55524;51.380;13.372;2023-04-07T12:26:49;100410.25;;;13.52;37.88
68525;BME280;55524;51.380;13.372;2023-04-07T12:29:18;100408.81;;;13.09;38.51
68525;BME280;55524;51.380;13.372;2023-04-07T12:35:07;100403.19;;;12.60;37.21
68525;BME280;55524;51.380;13.372;2023-04-07T12:37:33;100417.22;;;12.62;38.98
68525;BME280;55524;51.380;13.372;2023-04-07T12:40:00;100426.81;;;12.46;39.65
68525;BME280;55524;51.380;13.372;2023-04-07T12:42:26;100425.44;;;12.37;39.09
68525;BME280;55524;51.380;13.372;2023-04-07T12:44:52;100425.19;;;12.43;38.13
68525;BME280;55524;51.380;13.372;2023-04-07T12:47:19;100429.84;;;12.57;38.42
68525;BME280;55524;51.380;13.372;2023-04-07T12:49:45;100424.91;;;12.87;38.20
68525;BME280;55524;51.380;13.372;2023-04-07T12:52:11;100414.28;;;12.49;37.97
68525;BME280;55524;51.380;13.372;2023-04-07T12:54:38;100426.13;;;12.01;38.34
68525;BME280;55524;51.380;13.372;2023-04-07T12:57:05;100422.88;;;12.15;39.31
68525;BME280;55524;51.380;13.372;2023-04-07T12:59:31;100432.53;;;12.37;39.91
68525;BME280;55524;51.380;13.372;2023-04-07T13:01:57;100435.78;;;12.43;39.61
68525;BME280;55524;51.380;13.372;2023-04-07T13:04:24;100432.50;;;12.76;40.03
68525;BME280;55524;51.380;13.372;2023-04-07T13:06:51;100425.97;;;12.64;39.25
68525;BME280;55524;51.380;13.372;2023-04-07T13:09:18;100427.69;;;12.26;39.66
68525;BME280;55524;51.380;13.372;2023-04-07T13:11:44;100428.03;;;12.18;39.73
68525;BME280;55524;51.380;13.372;2023-04-07T13:14:10;100442.34;;;12.14;40.57
68525;BME280;55524;51.380;13.372;2023-04-07T13:16:37;100444.06;;;12.36;40.53